Time;durP1;ratioP1;P1;durP2;ratioP2;P2;SDS_P1;SDS_P2;PMS_P1;PMS_P2;Temp;Humidity;BMP_temperature;BMP_pressure;BME280_temperature;BME280_humidity;BME280_pressure;Samples;Min_cycle;Max_cycle;Signal;HPM_P1;HPM_P2
2021/03/11 00:02:22;;;;;;;27.48;13.98;;;5.60;63.50;;;;;;5056278;28;20056;-58
2021/03/11 00:04:47;;;;;;;25.75;13.52;;;5.60;63.50;;;;;;5051525;28;20029;-56
2021/03/11 00:07:13;;;;;;;26.38;13.30;;;5.60;63.20;;;;;;5056633;28;20032;-55
2021/03/11 00:09:39;;;;;;;24.52;13.02;;;5.50;63.90;;;;;;5056837;28;20065;-57
2021/03/11 00:12:06;;;;;;;26.42;13.65;;;5.50;64.10;;;;;;5057406;28;20045;-57
2021/03/11 00:14:33;;;;;;;25.60;13.10;;;5.50;64.20;;;;;;5056949;28;20563;-57
2021/03/11 00:16:59;;;;;;;29.00;14.90;;;5.60;64.10;;;;;;5056682;28;20056;-57
2021/03/11 00:19:25;;;;;;;30.20;13.45;;;5.70;64.00;;;;;;5059570;28;20136;-57
2021/03/11 00:21:51;;;;;;;27.30;13.77;;;5.70;64.00;;;;;;5060913;28;20040;-56
2021/03/11 00:24:17;;;;;;;26.27;13.90;;;5.70;64.10;;;;;;5060470;28;20028;-57
2021/03/11 00:26:42;;;;;;;29.45;14.95;;;5.60;64.70;;;;;;5060231;28;20121;-57
2021/03/11 00:29:08;;;;;;;24.90;13.50;;;5.60;64.70;;;;;;5043363;28;20040;-55
2021/03/11 00:31:34;;;;;;;29.15;13.40;;;5.60;65.10;;;;;;5059973;28;20024;-56
2021/03/11 00:33:59;;;;;;;29.17;14.38;;;5.60;64.90;;;;;;5043280;28;20373;-57
2021/03/11 00:36:25;;;;;;;25.35;14.02;;;5.60;65.10;;;;;;5060362;28;20052;-55
2021/03/11 00:38:50;;;;;;;27.65;14.80;;;5.60;64.80;;;;;;5061047;28;20047;-56
2021/03/11 00:41:16;;;;;;;29.73;13.98;;;5.60;64.90;;;;;;5060520;28;20098;-56
2021/03/11 00:43:42;;;;;;;28.17;14.27;;;5.60;65.60;;;;;;5060807;28;20037;-57
2021/03/11 00:46:07;;;;;;;26.30;13.77;;;5.60;65.20;;;;;;5059559;28;20039;-56
2021/03/11 00:48:33;;;;;;;29.83;13.93;;;5.60;65.60;;;;;;5042080;28;20033;-56
2021/03/11 00:50:59;;;;;;;32.72;15.85;;;5.60;65.50;;;;;;5060748;28;20037;-56
2021/03/11 00:53:24;;;;;;;28.25;14.18;;;5.50;66.20;;;;;;5041944;28;20453;-56
2021/03/11 00:55:50;;;;;;;28.05;14.30;;;5.50;66.20;;;;;;5060130;28;20519;-57
2021/03/11 00:58:16;;;;;;;32.75;15.50;;;5.50;66.30;;;;;;5060694;28;20036;-57
2021/03/11 01:00:42;;;;;;;29.55;14.75;;;5.60;66.10;;;;;;5060232;28;20032;-57
2021/03/11 01:03:16;;;;;;;26.67;13.73;;;5.60;66.30;;;;;;5041936;28;20044;-56
2021/03/11 01:05:47;;;;;;;32.33;13.88;;;5.50;66.50;;;;;;5046650;28;20778;-57
2021/03/11 01:08:22;;;;;;;28.85;15.18;;;5.50;66.80;;;;;;5057692;28;20408;-55
2021/03/11 01:10:48;;;;;;;28.58;14.45;;;5.60;66.80;;;;;;5060307;28;20037;-56
2021/03/11 01:13:14;;;;;;;24.92;13.15;;;5.50;66.90;;;;;;5060174;28;20431;-57
2021/03/11 01:15:41;;;;;;;26.67;13.77;;;5.60;67.20;;;;;;5058767;28;20028;-56
2021/03/11 01:18:08;;;;;;;32.03;14.95;;;5.70;67.00;;;;;;5059748;28;20029;-57
2021/03/11 01:20:34;;;;;;;30.30;15.20;;;5.70;66.60;;;;;;5056672;28;20075;-57
2021/03/11 01:23:00;;;;;;;32.65;15.20;;;5.80;66.30;;;;;;5059662;28;20524;-57
2021/03/11 01:25:25;;;;;;;29.90;14.70;;;5.80;66.30;;;;;;5058869;28;20104;-56
2021/03/11 01:27:51;;;;;;;28.38;14.63;;;5.80;66.30;;;;;;5059949;28;20079;-56
2021/03/11 01:30:18;;;;;;;34.75;15.10;;;5.80;66.50;;;;;;5058818;28;20040;-57
2021/03/11 01:32:44;;;;;;;31.05;15.68;;;5.80;66.70;;;;;;5059436;28;20485;-56
2021/03/11 01:35:10;;;;;;;34.17;15.20;;;5.80;66.30;;;;;;5059036;28;20035;-57
2021/03/11 01:37:36;;;;;;;32.08;14.43;;;5.80;66.40;;;;;;5059005;28;20532;-57
2021/03/11 01:40:04;;;;;;;30.42;14.32;;;5.80;66.80;;;;;;5060009;28;20112;-57
2021/03/11 01:42:29;;;;;;;31.52;14.05;;;5.90;66.40;;;;;;5053691;28;20495;-56
2021/03/11 01:44:56;;;;;;;29.52;14.30;;;5.90;66.00;;;;;;5058763;28;20029;-56
2021/03/11 01:47:21;;;;;;;34.97;16.50;;;5.90;66.30;;;;;;5058249;28;20092;-56
2021/03/11 01:49:47;;;;;;;32.10;15.20;;;5.90;66.80;;;;;;5059159;28;20036;-57
2021/03/11 01:52:13;;;;;;;32.47;15.55;;;5.90;66.30;;;;;;5058852;28;20206;-56
2021/03/11 01:54:39;;;;;;;36.53;15.95;;;5.90;66.70;;;;;;5057247;28;20025;-57
2021/03/11 01:57:05;;;;;;;37.05;16.30;;;6.00;66.10;;;;;;5059057;28;20064;-57
2021/03/11 01:59:31;;;;;;;35.72;15.75;;;6.10;66.30;;;;;;5058627;28;20028;-56
2021/03/11 02:01:58;;;;;;;33.65;16.17;;;6.10;65.60;;;;;;5059690;28;20040;-57
2021/03/11 02:04:25;;;;;;;34.25;16.35;;;6.10;65.80;;;;;;5054638;28;20032;-56
2021/03/11 02:06:52;;;;;;;34.30;16.08;;;6.10;66.20;;;;;;5058849;28;20051;-56
2021/03/11 02:09:18;;;;;;;35.00;15.73;;;6.00;66.30;;;;;;5058729;28;20055;-57
2021/03/11 02:11:58;;;;;;;30.52;16.08;;;6.00;66.80;;;;;;5041406;28;20036;-57
2021/03/11 02:14:45;;;;;;;31.58;16.10;;;6.00;66.60;;;;;;5058892;28;20032;-57
2021/03/11 02:17:14;;;;;;;32.90;15.77;;;6.00;66.70;;;;;;5058828;28;20051;-57
2021/03/11 02:19:39;;;;;;;33.28;15.13;;;5.90;66.70;;;;;;5058803;28;20024;-57
2021/03/11 02:22:42;;;;;;;31.48;15.63;;;6.00;66.80;;;;;;5058369;28;20581;-56
2021/03/11 02:25:32;;;;;;;32.70;16.15;;;6.00;66.60;;;;;;5058573;28;20068;-57
2021/03/11 02:28:04;;;;;;;34.08;15.52;;;6.10;66.40;;;;;;5059415;28;20041;-57
2021/03/11 02:30:31;;;;;;;32.13;15.70;;;6.10;66.30;;;;;;5058801;28;20037;-54
2021/03/11 02:32:58;;;;;;;36.17;15.75;;;6.10;66.30;;;;;;5058897;28;20039;-57
2021/03/11 02:35:26;;;;;;;30.48;14.85;;;6.10;66.50;;;;;;5058306;28;20040;-57
2021/03/11 02:37:54;;;;;;;36.03;16.13;;;6.20;66.30;;;;;;5057921;28;20044;-57
2021/03/11 02:40:31;;;;;;;30.63;15.13;;;6.20;66.00;;;;;;5058581;28;20116;-57
2021/03/11 02:42:59;;;;;;;28.30;14.45;;;6.20;65.70;;;;;;5040667;28;20036;-57
2021/03/11 02:45:28;;;;;;;33.75;15.30;;;6.20;66.00;;;;;;5057393;28;20028;-57
2021/03/11 02:47:57;;;;;;;31.13;15.85;;;6.10;66.40;;;;;;5058276;28;20036;-57
2021/03/11 02:50:23;;;;;;;32.33;15.50;;;6.20;66.40;;;;;;5058341;28;20064;-59
2021/03/11 02:52:50;;;;;;;31.77;16.00;;;6.10;66.80;;;;;;5053578;28;20029;-57
2021/03/11 02:55:17;;;;;;;37.53;16.25;;;6.10;67.10;;;;;;5057751;28;20037;-57
2021/03/11 02:57:44;;;;;;;33.40;15.88;;;6.20;67.70;;;;;;5058594;28;20051;-56
2021/03/11 03:00:11;;;;;;;30.63;15.18;;;6.20;67.70;;;;;;5057471;28;20479;-57
2021/03/11 03:02:41;;;;;;;34.47;16.05;;;6.20;68.40;;;;;;5058501;28;20033;-57
2021/03/11 03:05:09;;;;;;;28.25;14.90;;;6.20;69.00;;;;;;5056736;28;20043;-57
2021/03/11 03:07:39;;;;;;;31.13;14.73;;;6.10;69.70;;;;;;5057254;28;20083;-57
2021/03/11 03:10:06;;;;;;;31.88;15.82;;;6.00;70.90;;;;;;5056786;28;20033;-57
2021/03/11 03:12:36;;;;;;;31.73;16.20;;;6.00;71.40;;;;;;5057886;28;20036;-58
2021/03/11 03:15:04;;;;;;;32.42;15.68;;;6.00;71.90;;;;;;5056845;28;20111;-59
2021/03/11 03:17:32;;;;;;;35.25;16.73;;;6.10;72.30;;;;;;5057556;28;20059;-57
2021/03/11 03:19:59;;;;;;;34.80;16.83;;;6.00;72.80;;;;;;5057134;28;20036;-56
2021/03/11 03:22:27;;;;;;;34.17;16.13;;;5.90;73.50;;;;;;5056418;28;20041;-57
2021/03/11 03:24:52;;;;;;;34.20;16.52;;;5.80;74.00;;;;;;5040028;28;20032;-57
2021/03/11 03:27:18;;;;;;;33.20;16.63;;;5.80;74.80;;;;;;5055469;28;20865;-55
2021/03/11 03:29:44;;;;;;;35.13;16.83;;;5.80;75.50;;;;;;5056294;28;20063;-57
2021/03/11 03:32:10;;;;;;;34.45;16.75;;;5.80;75.60;;;;;;5056436;28;20035;-56
2021/03/11 03:34:37;;;;;;;32.67;16.25;;;5.80;75.60;;;;;;5056524;28;20025;-55
2021/03/11 03:37:03;;;;;;;35.03;17.13;;;5.70;77.00;;;;;;5056113;28;20039;-55
2021/03/11 03:39:29;;;;;;;36.92;17.52;;;5.70;77.70;;;;;;5041672;28;20040;-57
2021/03/11 03:41:56;;;;;;;37.50;18.05;;;5.70;77.60;;;;;;5058890;28;20805;-56
2021/03/11 03:44:25;;;;;;;33.53;15.65;;;5.60;78.80;;;;;;5055596;28;20036;-55
2021/03/11 03:46:52;;;;;;;33.67;16.27;;;5.50;79.90;;;;;;5056225;28;20135;-57
2021/03/11 03:49:21;;;;;;;37.95;17.92;;;5.50;80.30;;;;;;5056573;28;20123;-56
2021/03/11 03:51:48;;;;;;;38.45;17.63;;;5.50;80.30;;;;;;5056781;28;20039;-56
2021/03/11 03:54:24;;;;;;;41.00;18.50;;;5.40;80.70;;;;;;5055726;28;20033;-55
2021/03/11 03:57:00;;;;;;;39.28;18.73;;;5.40;82.10;;;;;;5056740;28;20422;-56
2021/03/11 03:59:29;;;;;;;38.15;17.65;;;5.40;81.60;;;;;;5055972;28;20632;-56
2021/03/11 04:01:57;;;;;;;38.50;17.30;;;5.50;82.20;;;;;;5056384;28;20055;-54
2021/03/11 04:04:28;;;;;;;37.22;16.48;;;5.40;82.40;;;;;;5056718;28;20040;-56
2021/03/11 04:06:55;;;;;;;38.55;17.42;;;5.40;82.70;;;;;;5055690;28;20045;-57
2021/03/11 04:09:22;;;;;;;39.00;17.65;;;5.40;82.70;;;;;;5057059;28;20036;-57
2021/03/11 04:11:49;;;;;;;40.85;18.73;;;5.40;82.90;;;;;;5049527;28;20547;-56
2021/03/11 04:14:15;;;;;;;39.40;18.08;;;5.40;83.20;;;;;;5055603;28;20029;-57
2021/03/11 04:16:42;;;;;;;42.05;19.65;;;5.40;83.30;;;;;;5055774;28;20127;-56
2021/03/11 04:19:10;;;;;;;42.40;17.95;;;5.30;83.50;;;;;;5038543;28;20479;-56
2021/03/11 04:21:37;;;;;;;39.85;18.13;;;5.30;83.50;;;;;;5055486;28;20086;-57
2021/03/11 04:24:04;;;;;;;41.10;18.67;;;5.20;83.90;;;;;;5056160;28;20044;-55
2021/03/11 04:26:30;;;;;;;42.85;17.23;;;5.20;83.80;;;;;;5055845;28;20562;-57
2021/03/11 04:28:57;;;;;;;39.22;18.25;;;5.20;83.40;;;;;;5056287;28;20074;-56
2021/03/11 04:31:25;;;;;;;38.17;18.40;;;5.10;83.50;;;;;;5055815;28;20041;-57
2021/03/11 04:33:52;;;;;;;43.72;19.92;;;5.20;84.10;;;;;;5055830;28;20049;-56
2021/03/11 04:36:18;;;;;;;42.88;18.60;;;5.20;84.00;;;;;;5048946;28;20111;-57
2021/03/11 04:38:44;;;;;;;36.63;17.70;;;5.20;84.50;;;;;;5049528;28;20036;-56
2021/03/11 04:41:10;;;;;;;37.70;17.63;;;5.20;83.80;;;;;;5044341;28;20037;-56
2021/03/11 04:43:38;;;;;;;37.55;17.52;;;5.30;84.20;;;;;;5043748;28;20033;-56
2021/03/11 04:46:04;;;;;;;37.42;16.27;;;5.30;83.70;;;;;;5049240;28;20033;-56
2021/03/11 04:48:32;;;;;;;35.40;17.05;;;5.40;83.20;;;;;;5041408;28;20481;-57
2021/03/11 04:51:00;;;;;;;37.13;17.15;;;5.40;83.50;;;;;;5048224;28;20493;-57
2021/03/11 04:53:26;;;;;;;37.00;16.65;;;5.40;83.30;;;;;;5044545;28;20951;-57
2021/03/11 04:55:53;;;;;;;34.55;15.93;;;5.50;83.00;;;;;;5044864;28;20025;-54
2021/03/11 04:58:18;;;;;;;37.92;17.80;;;5.50;83.00;;;;;;5038881;28;20029;-57
2021/03/11 05:00:47;;;;;;;37.45;17.38;;;5.50;83.50;;;;;;5041206;28;20444;-56
2021/03/11 05:03:14;;;;;;;37.15;16.98;;;5.60;83.40;;;;;;5050917;28;20040;-56
2021/03/11 05:05:41;;;;;;;36.78;17.70;;;5.60;83.60;;;;;;5042485;28;20062;-56
2021/03/11 05:08:08;;;;;;;38.55;17.77;;;5.50;84.00;;;;;;5050391;28;20048;-57
2021/03/11 05:10:35;;;;;;;37.08;16.98;;;5.50;84.50;;;;;;5052918;28;20077;-55
2021/03/11 05:13:01;;;;;;;35.00;16.38;;;5.40;85.50;;;;;;5041849;28;20045;-57
2021/03/11 05:15:27;;;;;;;34.17;16.90;;;5.50;85.60;;;;;;5041827;28;20029;-57
2021/03/11 05:17:53;;;;;;;39.13;16.88;;;5.60;86.00;;;;;;5045091;28;20033;-57
2021/03/11 05:20:20;;;;;;;43.65;18.05;;;5.60;86.00;;;;;;5046772;28;20032;-58
2021/03/11 05:22:46;;;;;;;36.13;16.42;;;5.70;85.60;;;;;;5041598;28;20032;-56
2021/03/11 05:25:12;;;;;;;43.55;18.92;;;5.60;85.10;;;;;;5043102;28;20033;-54
2021/03/11 05:27:39;;;;;;;36.58;16.42;;;5.70;85.20;;;;;;5025287;28;20040;-58
2021/03/11 05:30:07;;;;;;;34.53;17.17;;;5.70;85.50;;;;;;5052415;28;20044;-57
2021/03/11 05:32:34;;;;;;;35.65;17.13;;;5.80;85.10;;;;;;5049871;28;20041;-58
2021/03/11 05:34:59;;;;;;;40.85;18.17;;;5.80;84.70;;;;;;5054305;28;20032;-56
2021/03/11 05:37:25;;;;;;;39.75;18.67;;;5.70;84.10;;;;;;5042152;28;20110;-56
2021/03/11 05:39:51;;;;;;;34.00;17.25;;;5.70;84.30;;;;;;5044481;28;20043;-57
2021/03/11 05:42:20;;;;;;;42.92;18.65;;;5.70;84.90;;;;;;5042636;28;20110;-57
2021/03/11 05:44:46;;;;;;;39.15;18.92;;;5.70;85.00;;;;;;5044633;28;20331;-55
2021/03/11 05:47:13;;;;;;;41.75;18.48;;;5.80;84.60;;;;;;5052366;28;20042;-56
2021/03/11 05:49:40;;;;;;;41.35;17.80;;;5.80;84.60;;;;;;5049221;28;20036;-53
2021/03/11 05:52:09;;;;;;;39.45;18.88;;;5.80;85.00;;;;;;5047515;28;20047;-56
2021/03/11 05:54:36;;;;;;;37.97;18.05;;;5.90;84.90;;;;;;5046706;28;20036;-54
2021/03/11 05:57:03;;;;;;;39.58;17.23;;;5.80;85.00;;;;;;5048928;28;20056;-56
2021/03/11 05:59:28;;;;;;;43.20;18.95;;;5.90;85.40;;;;;;5042495;28;20036;-57
2021/03/11 06:01:56;;;;;;;37.05;18.33;;;5.80;85.20;;;;;;5042189;28;20062;-56
2021/03/11 06:04:22;;;;;;;41.22;18.50;;;5.70;86.10;;;;;;5043257;28;20068;-56
2021/03/11 06:06:49;;;;;;;41.92;17.65;;;5.70;86.10;;;;;;5048993;28;20028;-56
2021/03/11 06:09:17;;;;;;;38.38;18.40;;;5.80;86.50;;;;;;5050307;28;20058;-56
2021/03/11 06:11:43;;;;;;;37.42;17.45;;;5.80;86.60;;;;;;5046734;28;20032;-58
2021/03/11 06:14:12;;;;;;;41.10;18.85;;;5.80;86.50;;;;;;5038603;28;20035;-59
2021/03/11 06:16:41;;;;;;;43.50;18.20;;;5.70;87.20;;;;;;5038360;28;20119;-58
2021/03/11 06:19:08;;;;;;;41.20;20.02;;;5.70;87.10;;;;;;5034189;28;20654;-59
2021/03/11 06:21:34;;;;;;;37.15;18.40;;;5.70;87.60;;;;;;5028848;28;20138;-59
2021/03/11 06:24:00;;;;;;;42.20;20.23;;;5.70;88.20;;;;;;5037737;28;20385;-59
2021/03/11 06:26:26;;;;;;;44.53;19.70;;;5.70;88.60;;;;;;5036871;28;20044;-60
2021/03/11 06:28:54;;;;;;;39.47;18.48;;;5.60;88.70;;;;;;5037839;28;20109;-58
2021/03/11 06:31:25;;;;;;;41.88;19.77;;;5.50;89.50;;;;;;5038253;28;20033;-58
2021/03/11 06:33:54;;;;;;;43.45;19.48;;;5.50;89.80;;;;;;5020854;28;20068;-58
2021/03/11 06:36:25;;;;;;;45.25;20.45;;;5.60;90.00;;;;;;5019455;28;20032;-58
2021/03/11 06:38:51;;;;;;;48.38;19.83;;;5.70;90.00;;;;;;5046559;28;20032;-58
2021/03/11 06:41:17;;;;;;;40.03;18.52;;;5.70;89.60;;;;;;5050139;28;20098;-56
2021/03/11 06:43:58;;;;;;;40.80;17.60;;;5.70;90.00;;;;;;5051583;28;20040;-58
2021/03/11 06:46:25;;;;;;;38.05;17.30;;;5.80;90.00;;;;;;5042803;28;20489;-58
2021/03/11 06:49:05;;;;;;;44.35;19.98;;;5.80;89.60;;;;;;5040021;28;20401;-58
2021/03/11 06:51:31;;;;;;;38.08;17.90;;;5.80;89.70;;;;;;5042539;28;20044;-58
2021/03/11 06:53:58;;;;;;;44.22;18.77;;;5.80;89.60;;;;;;5043251;28;20389;-58
2021/03/11 06:56:26;;;;;;;42.97;18.77;;;5.80;89.80;;;;;;5037393;28;20804;-58
2021/03/11 06:59:02;;;;;;;42.25;19.10;;;5.80;90.00;;;;;;5041043;28;20029;-58
2021/03/11 07:01:30;;;;;;;37.85;17.92;;;5.80;89.80;;;;;;5050085;28;20117;-57
2021/03/11 07:04:01;;;;;;;39.90;18.38;;;5.70;90.20;;;;;;5040825;28;20040;-58
2021/03/11 07:06:37;;;;;;;37.58;17.42;;;5.80;90.30;;;;;;5035856;28;20037;-58
2021/03/11 07:09:07;;;;;;;44.67;18.37;;;5.80;90.40;;;;;;5040177;28;20041;-58
2021/03/11 07:11:33;;;;;;;38.75;17.73;;;5.80;90.10;;;;;;5042534;28;20296;-58
2021/03/11 07:14:01;;;;;;;37.88;17.00;;;5.90;90.10;;;;;;5043664;28;20481;-58
2021/03/11 07:16:28;;;;;;;32.60;15.88;;;6.00;89.80;;;;;;5035891;28;20512;-59
2021/03/11 07:19:14;;;;;;;38.05;17.98;;;6.10;89.20;;;;;;5044383;28;20036;-59
2021/03/11 07:21:49;;;;;;;35.15;17.17;;;6.10;89.40;;;;;;5049316;28;20055;-58
2021/03/11 07:24:35;;;;;;;34.30;16.38;;;6.00;89.70;;;;;;5046457;28;20057;-58
2021/03/11 07:27:01;;;;;;;33.53;15.57;;;6.10;89.90;;;;;;5043790;28;20040;-58
2021/03/11 07:29:27;;;;;;;35.70;16.63;;;6.10;89.70;;;;;;5044646;28;20269;-59
2021/03/11 07:32:03;;;;;;;32.53;16.48;;;6.20;89.60;;;;;;5043453;28;20047;-58
2021/03/11 07:34:33;;;;;;;31.60;15.88;;;6.20;89.20;;;;;;5046153;28;20032;-57
2021/03/11 07:36:59;;;;;;;33.17;15.75;;;6.30;89.00;;;;;;5042889;28;20037;-59
2021/03/11 07:39:47;;;;;;;30.38;15.02;;;6.40;88.40;;;;;;5044554;28;20021;-59
2021/03/11 07:42:13;;;;;;;29.20;14.77;;;6.40;88.40;;;;;;5038125;28;20047;-61
2021/03/11 07:44:38;;;;;;;32.80;14.68;;;6.40;88.80;;;;;;5039446;28;20033;-59
2021/03/11 07:47:05;;;;;;;32.47;15.68;;;6.50;88.30;;;;;;5040236;28;20067;-56
2021/03/11 07:49:32;;;;;;;30.20;14.63;;;6.50;88.70;;;;;;5046745;28;20048;-60
2021/03/11 07:51:59;;;;;;;28.33;14.40;;;6.60;88.30;;;;;;5047182;28;20615;-59
2021/03/11 07:54:25;;;;;;;29.45;14.88;;;6.70;88.60;;;;;;5039593;28;20032;-58
2021/03/11 07:56:52;;;;;;;29.10;14.25;;;6.70;87.90;;;;;;5043919;28;20843;-58
2021/03/11 07:59:18;;;;;;;29.38;15.38;;;6.60;88.20;;;;;;5042245;28;20132;-58
2021/03/11 08:01:54;;;;;;;28.42;14.60;;;6.70;88.80;;;;;;5042104;28;20033;-61
2021/03/11 08:04:22;;;;;;;27.05;13.57;;;6.70;89.20;;;;;;5041184;28;20037;-58
2021/03/11 08:06:48;;;;;;;29.05;13.98;;;6.70;89.00;;;;;;5045022;28;20765;-58
2021/03/11 08:09:34;;;;;;;24.92;13.38;;;6.80;88.60;;;;;;5041481;28;20041;-58
2021/03/11 08:12:40;;;;;;;30.63;14.55;;;6.90;88.20;;;;;;5038723;28;20068;-58
2021/03/11 08:15:15;;;;;;;26.35;13.30;;;6.90;87.80;;;;;;5051763;28;20046;-58
2021/03/11 08:17:48;;;;;;;30.15;14.05;;;6.90;88.60;;;;;;5041586;28;20033;-58
2021/03/11 08:20:20;;;;;;;26.17;14.13;;;6.90;88.40;;;;;;5049677;28;20029;-59
2021/03/11 08:25:37;;;;;;;27.92;13.93;;;7.00;88.30;;;;;;5040179;28;20032;-59
2021/03/11 08:28:09;;;;;;;26.53;13.57;;;7.10;88.20;;;;;;5040620;28;20052;-58
2021/03/11 08:30:41;;;;;;;27.67;13.32;;;7.20;87.90;;;;;;5042732;28;20063;-59
2021/03/11 08:33:08;;;;;;;28.88;13.70;;;7.20;87.60;;;;;;5054581;28;20459;-58
2021/03/11 08:35:49;;;;;;;30.20;13.73;;;7.10;87.80;;;;;;5046739;28;20115;-58
2021/03/11 08:38:21;;;;;;;26.48;12.80;;;7.00;88.50;;;;;;5037543;28;20048;-59
2021/03/11 08:41:07;;;;;;;28.48;12.98;;;7.00;89.30;;;;;;5049048;28;20040;-59
2021/03/11 08:43:38;;;;;;;28.20;13.43;;;7.00;89.20;;;;;;5056338;28;20056;-59
2021/03/11 08:46:06;;;;;;;26.02;12.88;;;7.10;88.70;;;;;;5051637;28;20044;-58
2021/03/11 08:48:46;;;;;;;26.27;13.60;;;7.20;87.80;;;;;;5052651;28;20795;-59
2021/03/11 08:51:32;;;;;;;29.20;13.70;;;7.20;88.10;;;;;;5053910;28;20047;-59
2021/03/11 08:54:01;;;;;;;27.10;13.57;;;7.10;88.90;;;;;;5043101;28;20041;-59
2021/03/11 08:56:27;;;;;;;24.00;12.32;;;7.10;88.70;;;;;;5053420;28;20472;-59
2021/03/11 08:59:06;;;;;;;23.35;12.23;;;7.20;88.70;;;;;;5054761;28;20032;-59
2021/03/11 09:01:39;;;;;;;21.38;10.88;;;7.30;88.80;;;;;;5052437;28;20048;-59
2021/03/11 09:04:29;;;;;;;24.23;12.00;;;7.30;88.00;;;;;;5051052;28;20751;-59
2021/03/11 09:07:26;;;;;;;21.88;11.60;;;7.40;87.90;;;;;;5050035;28;20056;-59
2021/03/11 09:09:52;;;;;;;23.23;12.85;;;7.40;88.40;;;;;;5041956;28;20036;-59
2021/03/11 09:12:25;;;;;;;22.02;11.88;;;7.40;87.60;;;;;;5056773;28;20037;-58
2021/03/11 09:14:53;;;;;;;22.33;11.57;;;7.20;88.30;;;;;;5042126;28;20032;-59
2021/03/11 09:17:20;;;;;;;21.75;11.02;;;7.20;88.80;;;;;;5045098;28;20040;-59
2021/03/11 09:19:52;;;;;;;25.85;11.93;;;7.30;88.60;;;;;;5047125;28;20489;-59
2021/03/11 09:22:23;;;;;;;23.83;12.10;;;7.30;88.80;;;;;;5051674;28;20041;-59
2021/03/11 09:24:59;;;;;;;24.65;11.75;;;7.30;89.00;;;;;;5047329;28;20033;-59
2021/03/11 09:27:29;;;;;;;23.38;12.38;;;7.50;88.70;;;;;;5050330;28;20118;-59
2021/03/11 09:29:59;;;;;;;23.33;11.82;;;7.60;88.20;;;;;;5047187;28;20149;-60
2021/03/11 09:32:32;;;;;;;23.17;12.43;;;7.60;88.00;;;;;;5049092;28;20060;-59
2021/03/11 09:35:09;;;;;;;21.38;11.40;;;7.60;88.20;;;;;;5048313;28;20028;-58
2021/03/11 09:37:45;;;;;;;20.60;11.25;;;7.60;88.20;;;;;;5041822;28;20029;-59
2021/03/11 09:40:13;;;;;;;25.40;11.88;;;7.70;87.70;;;;;;5047989;28;20024;-59
2021/03/11 09:43:01;;;;;;;20.35;12.20;;;7.60;87.90;;;;;;5042075;28;20036;-59
2021/03/11 09:45:44;;;;;;;19.35;10.63;;;7.70;88.10;;;;;;5048639;28;20078;-60
2021/03/11 09:48:12;;;;;;;18.88;10.40;;;7.70;88.30;;;;;;5038636;28;20040;-59
2021/03/11 09:50:40;;;;;;;20.70;11.02;;;7.80;87.90;;;;;;5050720;28;20128;-58
2021/03/11 09:53:06;;;;;;;20.83;10.52;;;7.80;87.80;;;;;;5053342;28;20033;-59
2021/03/11 09:55:32;;;;;;;21.75;10.68;;;7.90;87.40;;;;;;5052772;28;20882;-58
2021/03/11 09:57:58;;;;;;;20.52;10.57;;;8.00;87.30;;;;;;5044458;28;20036;-59
2021/03/11 10:00:24;;;;;;;19.55;10.45;;;8.00;86.80;;;;;;5040390;28;20541;-59
2021/03/11 10:02:53;;;;;;;19.60;10.35;;;7.90;87.10;;;;;;5043902;28;20109;-62
2021/03/11 10:05:20;;;;;;;22.02;11.45;;;7.90;87.50;;;;;;5044538;28;20029;-59
2021/03/11 10:07:57;;;;;;;18.10;10.25;;;7.90;88.20;;;;;;5046075;28;20067;-59
2021/03/11 10:10:24;;;;;;;21.38;10.73;;;8.00;87.90;;;;;;5053535;28;20536;-59
2021/03/11 10:12:50;;;;;;;17.45;10.27;;;8.10;87.30;;;;;;5038455;28;20657;-59
2021/03/11 10:15:18;;;;;;;20.90;10.60;;;8.10;86.80;;;;;;5042459;28;20060;-59
2021/03/11 10:17:44;;;;;;;17.15;9.65;;;8.10;87.10;;;;;;5049230;28;20029;-59
2021/03/11 10:20:27;;;;;;;18.98;10.32;;;8.10;86.90;;;;;;5040180;28;20842;-59
2021/03/11 10:23:17;;;;;;;19.10;10.50;;;8.10;87.30;;;;;;5033859;28;20752;-60
2021/03/11 10:25:44;;;;;;;17.52;9.90;;;8.10;87.10;;;;;;5047463;28;20831;-60
2021/03/11 10:28:11;;;;;;;18.38;10.05;;;8.10;87.30;;;;;;5048743;28;20112;-60
2021/03/11 10:30:40;;;;;;;19.92;9.98;;;8.20;86.90;;;;;;5050902;28;20483;-59
2021/03/11 10:33:06;;;;;;;17.02;8.88;;;8.20;87.20;;;;;;5045948;28;20036;-59
2021/03/11 10:35:40;;;;;;;17.75;9.48;;;8.30;87.40;;;;;;5048051;28;20463;-59
2021/03/11 10:38:29;;;;;;;18.02;9.68;;;8.40;87.20;;;;;;5050371;28;20502;-59
2021/03/11 10:41:08;;;;;;;16.02;9.32;;;8.60;86.90;;;;;;5037966;28;20059;-59
2021/03/11 10:43:34;;;;;;;18.30;9.10;;;8.90;86.90;;;;;;5055538;28;20073;-58
2021/03/11 10:45:59;;;;;;;16.75;8.27;;;9.10;86.00;;;;;;5053256;28;20397;-59
2021/03/11 10:48:25;;;;;;;14.60;8.20;;;9.30;84.50;;;;;;5052430;28;20040;-59
2021/03/11 10:50:53;;;;;;;14.45;8.18;;;9.50;84.10;;;;;;5042945;28;20041;-59
2021/03/11 10:53:35;;;;;;;15.40;8.48;;;9.60;83.40;;;;;;5036784;28;20063;-59
2021/03/11 10:56:06;;;;;;;17.13;8.88;;;9.70;83.10;;;;;;5043395;28;20634;-59
2021/03/11 10:58:32;;;;;;;13.80;8.93;;;9.90;81.50;;;;;;5037028;28;20044;-59
2021/03/11 11:01:08;;;;;;;16.15;9.57;;;10.10;82.80;;;;;;5047812;28;20040;-59
2021/03/11 11:03:35;;;;;;;14.65;8.73;;;10.30;81.60;;;;;;5039679;28;20045;-59
2021/03/11 11:06:01;;;;;;;15.23;8.93;;;10.20;80.20;;;;;;5045204;28;20055;-59
2021/03/11 11:08:27;;;;;;;16.30;8.70;;;10.10;80.70;;;;;;5050421;28;20099;-59
2021/03/11 11:10:53;;;;;;;14.40;8.95;;;10.10;81.70;;;;;;5051379;28;20108;-59
2021/03/11 11:13:18;;;;;;;13.35;8.43;;;10.20;82.40;;;;;;5043298;28;20801;-62
2021/03/11 11:15:44;;;;;;;13.10;8.27;;;10.40;82.70;;;;;;5042468;28;20794;-62
2021/03/11 11:18:10;;;;;;;10.80;6.95;;;10.50;80.40;;;;;;5041184;28;20036;-59
2021/03/11 11:20:36;;;;;;;14.75;7.65;;;10.60;79.20;;;;;;5047031;28;20029;-59
2021/03/11 11:23:03;;;;;;;12.57;8.00;;;10.60;79.10;;;;;;5042824;28;20035;-59
2021/03/11 11:25:30;;;;;;;12.60;7.68;;;10.60;81.10;;;;;;5045069;28;20082;-59
2021/03/11 11:27:56;;;;;;;14.48;8.00;;;10.60;79.80;;;;;;5047485;28;20033;-60
2021/03/11 11:30:23;;;;;;;12.52;7.47;;;10.60;81.20;;;;;;5042112;28;20064;-59
2021/03/11 11:32:48;;;;;;;12.00;7.60;;;10.80;80.10;;;;;;5036977;28;20033;-59
2021/03/11 11:35:16;;;;;;;14.27;7.85;;;10.90;78.70;;;;;;5040651;28;20032;-59
2021/03/11 11:37:43;;;;;;;14.07;8.02;;;10.90;78.80;;;;;;5046367;28;20132;-59
2021/03/11 11:40:10;;;;;;;13.15;7.30;;;10.70;79.90;;;;;;5048156;28;20041;-59
2021/03/11 11:42:36;;;;;;;12.68;7.60;;;10.70;80.60;;;;;;5044877;28;20041;-59
2021/03/11 11:45:03;;;;;;;15.48;9.10;;;10.70;81.00;;;;;;5046587;28;20040;-59
2021/03/11 11:47:29;;;;;;;13.45;7.20;;;10.60;82.40;;;;;;5055620;28;20040;-59
2021/03/11 11:49:54;;;;;;;9.55;6.20;;;10.50;82.50;;;;;;5043764;28;20041;-58
2021/03/11 11:52:20;;;;;;;11.73;7.30;;;10.60;82.40;;;;;;5041372;28;20037;-62
2021/03/11 11:54:46;;;;;;;10.52;6.90;;;10.80;81.80;;;;;;5038829;28;20098;-62
2021/03/11 11:57:11;;;;;;;10.13;6.13;;;11.00;81.40;;;;;;5043842;28;20036;-62
2021/03/11 11:59:37;;;;;;;9.60;5.88;;;11.10;80.60;;;;;;5050549;28;20113;-62
2021/03/11 12:02:03;;;;;;;11.32;6.00;;;11.20;80.40;;;;;;5038830;28;20033;-59
2021/03/11 12:04:30;;;;;;;7.85;5.20;;;11.50;77.60;;;;;;5044297;28;20041;-62
2021/03/11 12:06:56;;;;;;;13.57;6.45;;;11.60;77.60;;;;;;5039747;28;20041;-59
2021/03/11 12:09:22;;;;;;;9.60;5.60;;;11.80;76.40;;;;;;5042196;28;20143;-59
2021/03/11 12:11:48;;;;;;;9.13;5.78;;;11.90;77.00;;;;;;5035304;28;20068;-59
2021/03/11 12:14:13;;;;;;;8.45;5.95;;;12.10;76.40;;;;;;5038859;28;20086;-59
2021/03/11 12:16:39;;;;;;;7.10;5.13;;;12.20;74.80;;;;;;5042718;28;20028;-59
2021/03/11 12:19:05;;;;;;;7.30;5.05;;;12.30;73.50;;;;;;5045300;28;20606;-59
2021/03/11 12:21:32;;;;;;;7.72;5.20;;;12.30;73.80;;;;;;5044912;28;20036;-59
2021/03/11 12:23:58;;;;;;;8.45;4.63;;;12.30;73.80;;;;;;5049832;28;20174;-59
2021/03/11 12:26:24;;;;;;;6.90;4.65;;;12.30;74.00;;;;;;5041072;28;20047;-59
2021/03/11 12:28:51;;;;;;;6.07;4.57;;;12.20;73.20;;;;;;5036165;28;20037;-59
2021/03/11 12:31:16;;;;;;;9.15;5.00;;;12.10;73.80;;;;;;5039054;28;20029;-59
2021/03/11 12:33:42;;;;;;;7.05;4.53;;;12.20;73.90;;;;;;5047432;28;20039;-59
2021/03/11 12:36:09;;;;;;;8.15;4.82;;;12.20;72.60;;;;;;5048785;28;20067;-59
2021/03/11 12:38:36;;;;;;;6.95;4.20;;;12.00;72.70;;;;;;5049026;28;20032;-59
2021/03/11 12:41:03;;;;;;;7.78;5.05;;;11.70;74.30;;;;;;5049863;28;20052;-59
2021/03/11 12:43:28;;;;;;;7.40;4.45;;;11.50;75.40;;;;;;5036016;28;20033;-59
2021/03/11 12:45:54;;;;;;;5.47;4.13;;;11.40;76.00;;;;;;5041327;28;20512;-59
2021/03/11 12:48:20;;;;;;;6.35;4.07;;;11.40;76.00;;;;;;5051884;28;20040;-59
2021/03/11 12:50:48;;;;;;;7.90;4.25;;;11.40;76.40;;;;;;5043584;28;20029;-59